Hauptseite
METAR-TAF:

METAR-TAF

Flughäfen :

Bagdad, Irak

Flughafen Bagdad

Breite: 33-15-45N, Länge: 44-14-04E, Höhe: 35 m

Beobachtung

Neuester Wetterbericht von vor 1 Stunde und 6 Minuten, um 13:00 UTC
Wind 8 kt aus Nord
Temperatur 31°C
Luftfeuchtigkeit 13%
Luftdruck 1014 hPa
Sichtweite 10 km oder mehr
keine Wolken unter 1500 m und keine Kumulonimbus oder Gewitterwolken

METAR: ORBI 201300Z 35008KT CAVOK 31/M01 Q1014 NOSIG

Zeit: 17:06 (14:06 UTC)

Prognose

Neuester Wetterbericht von vor 4 Stunden und 6 Minuten, um 10:00 UTC
Gültige Prognose vom 20 um 12 UTC bis 21 um 12 UTC
Wind 6 kt aus Nordwest
Sichtweite 10 km oder mehr
keine Wolken unter 1500 m und keine Kumulonimbus oder Gewitterwolken

TAF: ORBI 201000Z 2012/2112 32006KT CAVOK

Wetterbeobachtungen und Prognosen von mehr als 4000 Flughäfen (METAR und TAF Bericht).

Die verfügbaren Stationen werden durch gelbe und rote Markierungen auf der Karte dargestellt.

Führen Sie die Maus auf sie, um den Namen der Station zu sehen.

Darauf klicken, um die Beobachtung von Wetterbeobachtungen und Prognosen zu sehen.

Um die Karte zu ändern : klicken Sie auf den grünen Tasten mit einem schwarzen Kreuz Zum Vergrößern, auf den grünen Button mit einem Gedankenstrich zu verkleinern, oder auf die grünen Pfeile für benachbarte Karten.


METAR-TAF: